createdAt,value
2022-08-11T00:01:59.546Z,2.00
2022-08-11T00:04:27.393Z,1.90
2022-08-11T00:06:55.345Z,2.27
2022-08-11T00:09:31.461Z,2.27
2022-08-11T00:11:59.145Z,2.77
2022-08-11T00:14:37.282Z,2.10
2022-08-11T00:17:08.690Z,2.30
2022-08-11T00:20:13.014Z,2.20
2022-08-11T00:22:26.896Z,2.43
2022-08-11T00:24:58.568Z,2.17
2022-08-11T00:27:36.171Z,2.40
2022-08-11T00:30:04.499Z,2.30
2022-08-11T00:32:33.247Z,2.37
2022-08-11T00:35:55.789Z,2.00
2022-08-11T00:37:50.053Z,2.20
2022-08-11T00:40:26.908Z,2.37
2022-08-11T00:43:07.501Z,1.63
2022-08-11T00:45:42.246Z,2.63
2022-08-11T00:48:25.015Z,2.10
2022-08-11T00:51:02.234Z,2.80
2022-08-11T00:53:38.067Z,2.03
2022-08-11T00:56:37.379Z,2.23
2022-08-11T00:59:37.750Z,2.30
2022-08-11T01:02:16.006Z,2.30
2022-08-11T01:05:11.018Z,2.20
2022-08-11T01:08:10.561Z,2.20
2022-08-11T01:10:56.538Z,2.50
2022-08-11T01:13:50.739Z,3.43
2022-08-11T01:16:55.934Z,2.50
2022-08-11T01:20:47.861Z,2.43
2022-08-11T01:23:37.053Z,2.23
2022-08-11T01:26:42.220Z,2.13
2022-08-11T01:29:54.538Z,2.37
2022-08-11T01:32:55.886Z,2.33
2022-08-11T01:35:48.212Z,2.50
2022-08-11T01:38:42.632Z,2.43
2022-08-11T01:41:36.081Z,2.03
2022-08-11T01:44:27.532Z,3.17
2022-08-11T01:47:06.633Z,2.80
2022-08-11T01:50:07.852Z,2.27
2022-08-11T01:52:35.161Z,3.30
2022-08-11T01:55:14.686Z,2.87
2022-08-11T01:57:46.025Z,2.97
2022-08-11T02:00:17.104Z,2.70
2022-08-11T02:02:59.079Z,2.67
2022-08-11T02:05:49.753Z,2.20
2022-08-11T02:08:36.492Z,3.07
2022-08-11T02:11:20.169Z,2.00
2022-08-11T02:13:57.405Z,3.07
2022-08-11T02:16:39.677Z,2.93
2022-08-11T02:19:20.811Z,2.67
2022-08-11T02:21:52.445Z,3.10
2022-08-11T02:24:26.746Z,2.83
2022-08-11T02:27:00.667Z,2.67
2022-08-11T02:29:33.407Z,3.07
2022-08-11T02:32:25.626Z,3.10
2022-08-11T02:35:01.801Z,3.27
2022-08-11T02:37:41.774Z,2.20
2022-08-11T02:40:22.749Z,2.27
2022-08-11T02:42:57.843Z,2.60
2022-08-11T02:45:38.156Z,2.93
2022-08-11T02:48:13.429Z,2.50
2022-08-11T02:50:47.778Z,3.00
2022-08-11T02:53:20.121Z,2.93
2022-08-11T02:56:01.638Z,2.77
2022-08-11T02:58:37.008Z,3.53
2022-08-11T03:01:12.836Z,2.80
2022-08-11T03:03:48.729Z,3.43
2022-08-11T03:06:29.426Z,2.80
2022-08-11T03:09:04.300Z,2.80
2022-08-11T03:11:52.450Z,2.73
2022-08-11T03:14:25.447Z,3.00
2022-08-11T03:17:00.494Z,3.00
2022-08-11T03:19:34.360Z,4.80
2022-08-11T03:22:08.162Z,3.00
2022-08-11T03:24:49.859Z,2.97
2022-08-11T03:27:30.764Z,2.57
2022-08-11T03:30:06.244Z,3.07
2022-08-11T03:32:41.761Z,3.10
2022-08-11T03:35:10.673Z,4.03
2022-08-11T03:37:55.537Z,4.23
2022-08-11T03:40:40.428Z,3.70
2022-08-11T03:43:24.035Z,4.70
2022-08-11T03:46:00.788Z,3.30
2022-08-11T03:48:37.602Z,3.87
2022-08-11T03:51:12.875Z,3.80
2022-08-11T03:54:00.644Z,3.10
2022-08-11T03:57:15.979Z,3.47
2022-08-11T04:03:07.355Z,4.00
2022-08-11T04:06:16.338Z,2.90
2022-08-11T04:09:00.545Z,2.73
2022-08-11T04:11:56.563Z,3.70
2022-08-11T04:14:51.362Z,4.03
2022-08-11T04:17:50.694Z,3.40
2022-08-11T04:20:50.917Z,2.70
2022-08-11T04:24:35.746Z,3.27
2022-08-11T04:27:14.396Z,2.87
2022-08-11T04:30:03.631Z,5.30
2022-08-11T04:33:10.141Z,3.10
2022-08-11T04:35:48.796Z,3.67
2022-08-11T04:38:57.988Z,3.40
2022-08-11T04:41:55.160Z,3.90
2022-08-11T04:45:04.618Z,3.50
2022-08-11T04:48:03.874Z,4.27
2022-08-11T04:50:45.468Z,3.63
2022-08-11T04:53:52.283Z,4.20
2022-08-11T04:56:22.868Z,4.50
2022-08-11T04:59:15.156Z,4.63
2022-08-11T05:02:04.693Z,5.63
2022-08-11T05:04:56.178Z,5.27
2022-08-11T05:07:51.861Z,4.77
2022-08-11T05:10:28.788Z,4.70
2022-08-11T05:12:58.037Z,4.70
2022-08-11T05:15:43.147Z,5.13
2022-08-11T05:18:16.977Z,4.30
2022-08-11T05:20:50.122Z,4.60
2022-08-11T05:23:21.309Z,4.63
2022-08-11T05:26:44.420Z,4.00
2022-08-11T05:28:46.670Z,4.80
2022-08-11T05:31:16.413Z,4.90
2022-08-11T05:33:49.017Z,4.60
2022-08-11T05:36:26.877Z,5.20
2022-08-11T05:38:57.959Z,3.97
2022-08-11T05:41:27.055Z,4.87
2022-08-11T05:44:21.143Z,5.17
2022-08-11T05:46:45.935Z,4.40
2022-08-11T05:49:13.857Z,5.40
2022-08-11T05:51:51.935Z,5.40
2022-08-11T05:54:28.451Z,5.83
2022-08-11T05:56:58.599Z,5.40
2022-08-11T05:59:27.293Z,4.43
2022-08-11T06:02:01.096Z,4.67
2022-08-11T06:04:28.646Z,5.87
2022-08-11T06:06:57.520Z,5.00
2022-08-11T06:09:31.237Z,5.50
2022-08-11T06:12:01.766Z,4.57
2022-08-11T06:14:29.611Z,5.17
2022-08-11T06:17:00.453Z,5.97
2022-08-11T06:19:39.425Z,5.60
2022-08-11T06:22:09.705Z,5.20
2022-08-11T06:24:39.986Z,6.60
2022-08-11T06:27:15.054Z,5.33
2022-08-11T06:29:55.236Z,5.13
2022-08-11T06:32:27.651Z,5.40
2022-08-11T06:35:23.337Z,6.27
2022-08-11T06:38:04.892Z,4.80
2022-08-11T06:40:36.893Z,5.30
2022-08-11T06:43:11.639Z,4.33
2022-08-11T06:45:48.496Z,5.97
2022-08-11T06:48:20.841Z,5.27
2022-08-11T06:50:50.765Z,5.07
2022-08-11T06:53:19.299Z,4.70
2022-08-11T06:55:57.348Z,5.60
2022-08-11T06:58:29.808Z,4.23
2022-08-11T07:01:00.479Z,5.40
2022-08-11T07:03:32.781Z,5.37
2022-08-11T07:06:07.049Z,4.10
2022-08-11T07:09:19.462Z,5.37
2022-08-11T07:12:00.030Z,4.93
2022-08-11T07:14:32.784Z,5.70
2022-08-11T07:17:02.816Z,5.70
2022-08-11T07:19:31.743Z,5.87
2022-08-11T07:22:04.099Z,5.87
2022-08-11T07:24:59.671Z,6.10
2022-08-11T07:27:30.270Z,5.17
2022-08-11T07:30:02.565Z,5.10
2022-08-11T07:32:32.741Z,5.73
2022-08-11T07:35:08.038Z,5.10
2022-08-11T07:37:36.261Z,5.20
2022-08-11T07:40:04.033Z,4.23
2022-08-11T07:42:33.010Z,5.50
2022-08-11T07:45:00.177Z,6.30
2022-08-11T07:47:28.491Z,5.87
2022-08-11T07:49:55.467Z,5.70
2022-08-11T07:52:25.063Z,5.40
2022-08-11T07:54:52.502Z,6.47
2022-08-11T07:57:54.064Z,5.20
2022-08-11T08:00:07.762Z,3.90
2022-08-11T08:02:37.387Z,4.40
2022-08-11T08:05:07.116Z,6.00
2022-08-11T08:07:37.589Z,6.00
2022-08-11T08:10:08.405Z,4.80
2022-08-11T08:12:36.396Z,5.83
2022-08-11T08:15:08.315Z,5.37
2022-08-11T08:17:36.327Z,5.33
2022-08-11T08:20:04.133Z,4.30
2022-08-11T08:22:38.876Z,5.10
2022-08-11T08:25:17.184Z,4.57
2022-08-11T08:27:44.751Z,5.57
2022-08-11T08:30:13.599Z,5.63
2022-08-11T08:32:42.539Z,4.67
2022-08-11T08:35:11.243Z,4.87
2022-08-11T08:37:45.733Z,5.50
2022-08-11T08:40:15.677Z,4.83
2022-08-11T08:42:51.816Z,4.57
2022-08-11T08:45:19.419Z,5.03
2022-08-11T08:47:53.365Z,4.90
2022-08-11T08:50:27.647Z,5.73
2022-08-11T08:52:58.059Z,4.77
2022-08-11T08:55:28.516Z,4.87
2022-08-11T08:57:56.778Z,6.20
2022-08-11T09:00:23.990Z,4.33
2022-08-11T09:02:52.314Z,4.77
2022-08-11T09:05:20.027Z,4.87
2022-08-11T09:07:50.086Z,4.87
2022-08-11T09:10:20.390Z,3.90
2022-08-11T09:12:50.149Z,4.80
2022-08-11T09:15:19.815Z,4.23
2022-08-11T09:17:48.841Z,4.43
2022-08-11T09:20:19.494Z,4.60
2022-08-11T09:23:03.359Z,4.07
2022-08-11T09:25:36.887Z,4.80
2022-08-11T09:28:05.642Z,4.40
2022-08-11T09:30:32.471Z,3.77
2022-08-11T09:33:02.040Z,3.93
2022-08-11T09:35:29.891Z,4.07
2022-08-11T09:37:58.258Z,3.97
2022-08-11T09:40:27.282Z,4.20
2022-08-11T09:42:54.939Z,4.20
2022-08-11T09:45:23.144Z,4.67
2022-08-11T09:47:50.654Z,4.07
2022-08-11T09:50:18.053Z,4.97
2022-08-11T09:53:09.916Z,3.60
2022-08-11T09:55:33.524Z,3.87
2022-08-11T09:58:01.110Z,3.73
2022-08-11T10:00:34.430Z,3.37
2022-08-11T10:03:01.393Z,3.83
2022-08-11T10:05:29.582Z,2.83
2022-08-11T10:07:56.892Z,3.37
2022-08-11T10:10:24.646Z,3.33
2022-08-11T10:12:57.931Z,3.10
2022-08-11T10:15:25.191Z,3.17
2022-08-11T10:17:57.121Z,3.33
2022-08-11T10:20:25.939Z,3.07
2022-08-11T10:22:54.168Z,2.93
2022-08-11T10:25:22.016Z,2.90
2022-08-11T10:28:32.686Z,3.03
2022-08-11T10:30:38.180Z,3.33
2022-08-11T10:33:12.313Z,3.43
2022-08-11T10:35:59.535Z,3.90
2022-08-11T10:38:27.557Z,3.10
2022-08-11T10:40:55.358Z,3.87
2022-08-11T10:44:01.458Z,3.53
2022-08-11T10:46:10.304Z,3.50
2022-08-11T10:48:38.832Z,3.80
2022-08-11T10:51:07.622Z,3.97
2022-08-11T10:53:35.598Z,3.10
2022-08-11T10:58:33.327Z,3.40
2022-08-11T11:01:01.530Z,3.47
2022-08-11T11:03:30.323Z,3.30
2022-08-11T11:06:12.621Z,2.97
2022-08-11T11:09:03.673Z,3.70
2022-08-11T11:11:35.737Z,3.00
2022-08-11T11:14:03.703Z,3.40
2022-08-11T11:16:31.428Z,3.53
2022-08-11T11:19:03.993Z,3.00
2022-08-11T11:21:33.048Z,3.50
2022-08-11T11:24:14.365Z,3.80
2022-08-11T11:26:50.681Z,3.07
2022-08-11T11:29:33.871Z,3.50
2022-08-11T11:32:15.270Z,2.80
2022-08-11T11:35:00.890Z,3.47
2022-08-11T11:37:32.332Z,3.37
2022-08-11T11:40:01.286Z,3.20
2022-08-11T11:42:28.400Z,3.50
2022-08-11T11:44:56.778Z,2.93
2022-08-11T11:47:26.625Z,3.03
2022-08-11T11:49:53.846Z,3.10
2022-08-11T11:52:22.008Z,3.00
2022-08-11T11:54:54.999Z,3.03
2022-08-11T11:57:22.772Z,3.60
2022-08-11T11:59:51.012Z,2.93
2022-08-11T12:02:17.991Z,2.70
2022-08-11T12:04:46.308Z,3.23
2022-08-11T12:07:13.395Z,3.10
2022-08-11T12:09:40.924Z,2.90
2022-08-11T12:12:09.733Z,2.77
2022-08-11T12:14:37.073Z,2.70
2022-08-11T12:17:04.042Z,2.47
2022-08-11T12:19:35.497Z,2.90
2022-08-11T12:22:03.124Z,3.30
2022-08-11T12:24:31.030Z,3.17
2022-08-11T12:27:16.715Z,2.90
2022-08-11T12:29:52.847Z,3.17
2022-08-11T12:32:24.482Z,3.50
2022-08-11T12:34:51.673Z,2.47
2022-08-11T12:37:24.570Z,3.30
2022-08-11T12:40:10.957Z,3.00
2022-08-11T12:42:44.820Z,3.00
2022-08-11T12:45:27.942Z,3.10
2022-08-11T12:48:13.963Z,3.30
2022-08-11T12:50:51.986Z,3.07
2022-08-11T12:53:22.309Z,2.50
2022-08-11T12:56:03.347Z,3.27
2022-08-11T12:58:30.979Z,2.60
2022-08-11T13:00:59.190Z,2.90
2022-08-11T13:03:26.654Z,2.87
2022-08-11T13:05:56.085Z,2.93
2022-08-11T13:08:24.060Z,2.97
2022-08-11T13:10:53.155Z,2.37
2022-08-11T13:13:54.660Z,2.57
2022-08-11T13:16:09.641Z,3.33
2022-08-11T13:18:39.771Z,3.60
2022-08-11T13:21:06.697Z,2.70
2022-08-11T13:23:33.635Z,3.13
2022-08-11T13:26:01.903Z,3.03
2022-08-11T13:28:29.391Z,2.80
2022-08-11T13:30:56.418Z,3.17
2022-08-11T13:33:25.510Z,2.97
2022-08-11T13:35:54.695Z,2.97
2022-08-11T13:38:24.657Z,3.37
2022-08-11T13:40:56.014Z,2.67
2022-08-11T13:43:23.988Z,3.17
2022-08-11T13:45:53.059Z,3.30
2022-08-11T13:48:19.828Z,3.10
2022-08-11T13:50:48.362Z,2.30
2022-08-11T13:53:17.130Z,3.80
2022-08-11T13:55:51.022Z,2.90
2022-08-11T13:58:40.781Z,2.47
2022-08-11T14:02:03.126Z,2.70
2022-08-11T14:04:30.076Z,2.87
2022-08-11T14:06:50.723Z,2.50
2022-08-11T14:09:25.142Z,2.70
2022-08-11T14:12:22.125Z,3.00
2022-08-11T14:14:46.956Z,2.47
2022-08-11T14:17:46.987Z,2.57
2022-08-11T14:20:38.515Z,2.67
2022-08-11T14:22:56.126Z,3.30
2022-08-11T14:25:22.889Z,2.87
2022-08-11T14:28:32.414Z,2.83
2022-08-11T14:31:01.313Z,2.50
2022-08-11T14:33:58.677Z,3.00
2022-08-11T14:36:17.874Z,3.27
2022-08-11T14:38:47.463Z,2.90
2022-08-11T14:41:14.944Z,2.97
2022-08-11T14:44:14.218Z,2.70
2022-08-11T14:46:29.812Z,2.80
2022-08-11T14:48:56.531Z,2.87
2022-08-11T14:51:24.029Z,2.43
2022-08-11T15:22:13.869Z,3.10
2022-08-11T15:24:41.004Z,2.90
2022-08-11T15:27:12.329Z,2.97
2022-08-11T15:29:41.866Z,2.97
2022-08-11T15:32:10.958Z,2.87
2022-08-11T15:34:40.626Z,2.60
2022-08-11T15:37:09.801Z,2.97
2022-08-11T15:39:41.719Z,2.50
2022-08-11T15:42:13.168Z,2.70
2022-08-11T15:45:01.740Z,3.67
2022-08-11T15:47:36.402Z,3.90
2022-08-11T15:50:10.672Z,2.77
2022-08-11T15:52:47.657Z,2.57
2022-08-11T15:55:16.953Z,4.60
2022-08-11T15:57:47.418Z,2.77
2022-08-11T16:00:15.955Z,3.10
2022-08-11T16:02:45.316Z,2.97
2022-08-11T16:05:25.091Z,2.83
2022-08-11T16:08:03.863Z,3.17
2022-08-11T16:10:34.460Z,3.17
2022-08-11T16:13:05.411Z,2.90
2022-08-11T16:15:34.155Z,2.73
2022-08-11T16:18:06.090Z,3.00
2022-08-11T16:20:34.837Z,2.40
2022-08-11T16:23:04.656Z,2.73
2022-08-11T16:27:01.508Z,2.47
2022-08-11T16:28:23.090Z,2.60
2022-08-11T16:30:50.946Z,3.47
2022-08-11T16:33:48.468Z,3.00
2022-08-11T16:36:08.796Z,2.90
2022-08-11T16:38:38.115Z,2.87
2022-08-11T16:41:11.617Z,3.03
2022-08-11T16:43:41.870Z,2.70
2022-08-11T16:46:11.391Z,3.13
2022-08-11T16:48:39.856Z,3.03
2022-08-11T16:51:08.186Z,3.20
2022-08-11T16:54:00.149Z,3.00
2022-08-11T16:56:30.018Z,3.20
2022-08-11T16:59:00.140Z,3.50
2022-08-11T17:01:27.746Z,2.90
2022-08-11T17:04:02.586Z,3.20
2022-08-11T17:06:29.655Z,2.97
2022-08-11T17:08:58.254Z,3.10
2022-08-11T17:11:29.761Z,3.00
2022-08-11T17:13:59.319Z,3.10
2022-08-11T17:16:32.059Z,3.57
2022-08-11T17:19:01.728Z,3.40
2022-08-11T17:21:31.624Z,3.77
2022-08-11T17:24:06.334Z,3.33
2022-08-11T17:26:39.637Z,3.03
2022-08-11T17:29:06.662Z,3.80
2022-08-11T17:31:33.332Z,5.70
2022-08-11T17:34:01.267Z,4.60
2022-08-11T17:36:28.132Z,3.13
2022-08-11T17:38:56.381Z,2.67
2022-08-11T17:41:23.943Z,3.50
2022-08-11T17:43:54.756Z,3.10
2022-08-11T17:46:22.223Z,2.50
2022-08-11T17:48:49.658Z,3.40
2022-08-11T17:51:19.621Z,3.40
2022-08-11T17:54:10.169Z,2.60
2022-08-11T17:56:34.991Z,3.57
2022-08-11T17:59:04.599Z,3.23
2022-08-11T18:01:32.591Z,3.13
2022-08-11T18:04:00.525Z,3.63
2022-08-11T18:06:34.349Z,3.13
2022-08-11T18:09:04.343Z,3.20
2022-08-11T18:12:06.695Z,3.30
2022-08-11T18:14:28.216Z,3.87
2022-08-11T18:16:55.180Z,3.97
2022-08-11T18:19:22.098Z,3.30
2022-08-11T18:22:11.118Z,3.43
2022-08-11T18:24:41.535Z,2.90
2022-08-11T18:27:11.708Z,3.83
2022-08-11T18:29:42.530Z,3.57
2022-08-11T18:32:11.745Z,4.10
2022-08-11T18:34:50.262Z,3.37
2022-08-11T18:37:25.958Z,3.23
2022-08-11T18:39:58.736Z,4.00
2022-08-11T18:42:29.826Z,3.60
2022-08-11T18:45:01.333Z,3.60
2022-08-11T18:47:29.979Z,4.13
2022-08-11T18:50:03.846Z,3.83
2022-08-11T18:52:34.649Z,4.20
2022-08-11T18:55:04.044Z,3.87
2022-08-11T18:57:31.944Z,3.50
2022-08-11T19:00:06.877Z,4.20
2022-08-11T19:02:48.405Z,3.50
2022-08-11T19:05:18.397Z,3.37
2022-08-11T19:07:46.906Z,3.43
2022-08-11T19:10:16.083Z,3.63
2022-08-11T19:12:46.399Z,3.70
2022-08-11T19:15:15.189Z,3.70
2022-08-11T19:17:46.050Z,4.23
2022-08-11T19:20:16.199Z,4.20
2022-08-11T19:22:44.803Z,3.90
2022-08-11T19:25:12.867Z,4.50
2022-08-11T19:27:41.731Z,4.60
2022-08-11T19:30:13.552Z,4.10
2022-08-11T19:32:43.238Z,5.70
2022-08-11T19:35:11.061Z,4.20
2022-08-11T19:37:44.331Z,4.73
2022-08-11T19:40:12.495Z,4.67
2022-08-11T19:42:41.621Z,4.20
2022-08-11T19:45:09.100Z,3.90
2022-08-11T19:47:36.300Z,4.70
2022-08-11T19:50:05.422Z,5.30
2022-08-11T19:52:32.830Z,6.70
2022-08-11T19:55:00.868Z,9.57
2022-08-11T19:57:29.245Z,6.93
2022-08-11T19:59:56.431Z,7.20
2022-08-11T20:02:23.324Z,5.63
2022-08-11T20:04:50.977Z,5.30
2022-08-11T20:07:20.873Z,5.30
2022-08-11T20:10:04.893Z,5.60
2022-08-11T20:12:35.058Z,5.13
2022-08-11T20:15:03.218Z,5.60
2022-08-11T20:17:33.635Z,6.00
2022-08-11T20:20:03.935Z,5.97
2022-08-11T20:22:32.075Z,4.53
2022-08-11T20:24:59.429Z,5.80
2022-08-11T20:27:26.656Z,5.37
2022-08-11T20:29:55.687Z,5.80
2022-08-11T20:32:22.764Z,5.83
2022-08-11T20:34:49.523Z,6.20
2022-08-11T20:37:21.071Z,6.40
2022-08-11T20:39:51.407Z,5.40
2022-08-11T20:42:19.905Z,5.67
2022-08-11T20:44:49.427Z,5.20
2022-08-11T20:47:17.177Z,5.70
2022-08-11T20:49:53.663Z,5.77
2022-08-11T20:52:28.271Z,5.60
2022-08-11T20:54:57.758Z,5.03
2022-08-11T20:57:54.423Z,6.47
2022-08-11T21:00:15.554Z,5.53
2022-08-11T21:02:44.514Z,5.30
2022-08-11T21:05:13.199Z,5.50
2022-08-11T21:07:55.333Z,4.70
2022-08-11T21:10:28.068Z,4.87
2022-08-11T21:12:58.125Z,5.30
2022-08-11T21:16:01.313Z,4.27
2022-08-11T21:18:32.566Z,4.60
2022-08-11T21:21:04.613Z,4.67
2022-08-11T21:23:35.025Z,5.27
2022-08-11T21:26:08.219Z,5.13
2022-08-11T21:28:38.566Z,4.90
2022-08-11T21:31:06.774Z,4.50
2022-08-11T21:33:34.326Z,5.20
2022-08-11T21:36:02.829Z,5.50
2022-08-11T21:38:30.784Z,4.57
2022-08-11T21:41:00.093Z,5.47
2022-08-11T21:43:31.341Z,4.57
2022-08-11T21:45:59.180Z,5.47
2022-08-11T21:48:27.869Z,4.17
2022-08-11T21:50:54.551Z,4.50
2022-08-11T21:53:22.103Z,3.80
2022-08-11T21:55:51.341Z,3.80
2022-08-11T21:58:18.520Z,3.33
2022-08-11T22:00:46.907Z,3.50
2022-08-11T22:03:14.041Z,4.10
2022-08-11T22:05:42.037Z,4.10
2022-08-11T22:08:09.256Z,3.43
2022-08-11T22:10:42.125Z,3.63
2022-08-11T22:13:11.252Z,3.93
2022-08-11T22:15:38.611Z,3.40
2022-08-11T22:18:06.711Z,3.30
2022-08-11T22:20:35.280Z,3.50
2022-08-11T22:23:02.596Z,3.23
2022-08-11T22:25:38.419Z,3.50
2022-08-11T22:28:05.618Z,3.10
2022-08-11T22:30:33.288Z,3.97
2022-08-11T22:33:01.707Z,2.97
2022-08-11T22:35:32.039Z,3.10
2022-08-11T22:37:59.888Z,3.13
2022-08-11T22:40:26.680Z,3.30
2022-08-11T22:42:53.501Z,3.23
2022-08-11T22:45:20.804Z,2.80
2022-08-11T22:47:49.262Z,2.80
2022-08-11T22:50:16.684Z,2.83
2022-08-11T22:52:46.440Z,3.20
2022-08-11T22:55:13.767Z,2.70
2022-08-11T22:58:00.894Z,3.70
2022-08-11T23:00:30.517Z,2.90
2022-08-11T23:02:58.493Z,2.40
2022-08-11T23:05:27.377Z,3.30
2022-08-11T23:07:56.672Z,3.17
2022-08-11T23:10:23.960Z,3.10
2022-08-11T23:12:50.828Z,3.53
2022-08-11T23:15:17.971Z,3.70
2022-08-11T23:17:45.039Z,3.50
2022-08-11T23:20:28.529Z,3.20
2022-08-11T23:23:02.905Z,3.10
2022-08-11T23:25:31.458Z,2.73
2022-08-11T23:28:01.302Z,3.10
2022-08-11T23:30:28.925Z,3.07
2022-08-11T23:32:59.585Z,3.10
2022-08-11T23:35:38.149Z,2.60
2022-08-11T23:38:08.736Z,3.03
2022-08-11T23:40:37.904Z,3.23
2022-08-11T23:43:05.167Z,2.80
2022-08-11T23:45:32.619Z,3.00
2022-08-11T23:48:01.712Z,2.87
2022-08-11T23:50:29.313Z,3.40
2022-08-11T23:52:56.849Z,2.90
2022-08-11T23:55:25.293Z,3.17
2022-08-11T23:57:52.388Z,4.37
